Glacier Park International Airport Kalispell US
ICAO: KGPI
IATA: FCA
Category: Medium
Scheduled Services: Yes

Elevation: 2977 ft
TransAlt. 18000 ft.

Airport Communications:
ATIS:132.625
SALT LAKE CITY CNTR:133.4
CTAF:124.55
GND:121.6
GREAT FALLS RDO:122.5
TWR:124.55
UNICOM:122.95

KGPI Zoom In..

Runways:

(A) RW 02 length 9007 ft width 150 ft
ILS 111.50 / hdg 20

(B) RW 12 length 3504 ft width 75 ft
---- / hdg 121

(C) RW 20 length 9007 ft width 150 ft
---- / hdg 200

(D) RW 30 length 3504 ft width 75 ft
---- / hdg 301

Location; KGPI
Day. 23 / Time. 21.55 Zulu
* Altimeter: 30.10
* Temperature: 01° c. 33.8°f.
* Wind from: 210° Speed 03 kn.
Dewpoint: -04° c.
Visibility: 10 Statute Miles.
Clouds: Overcast 5500 ft.

KGPI 232155Z 21003KT 10SM OVC055 01/M04 A3010 RMK AO2 SLP217 T00111039


Wind From 210°
Speed 03 kn.

YouTube Music Video
 
jpsmedia.com for Web Design  worldairports.se 2018   terms of use